Time,TemperatureF,DewpointF,PressureIn,WindDirection,WindDirectionDegrees,WindSpeedMPH,WindSpeedGustMPH,Humidity,HourlyPrecipIn,Conditions,Clouds,dailyrainin,SolarRadiationWatts/m^2,SoftwareType,DateUTC
2013-02-11 00:00:00,32.9,28.6,30.33,SW,221,0.0,1.0,84,0.00,,,0.00,0,Wunderground v.1.15,2013-02-11 05:00:00,
2013-02-11 00:02:00,32.9,28.6,30.33,SW,221,0.0,1.0,84,0.00,,,0.00,0,Wunderground v.1.15,2013-02-11 05:02:00,
2013-02-11 00:05:00,33.0,28.7,30.33,SW,222,3.0,4.0,84,0.00,,,0.00,0,Wunderground v.1.15,2013-02-11 05:05:00,
2013-02-11 00:08:00,33.1,28.8,30.33,SW,229,0.0,4.0,84,0.00,,,0.00,0,Wunderground v.1.15,2013-02-11 05:08:00,
2013-02-11 00:14:00,33.3,29.0,30.32,SW,233,2.0,2.0,84,0.00,,,0.00,0,Wunderground v.1.15,2013-02-11 05:14:00,
2013-02-11 00:19:00,33.4,29.1,30.32,SW,221,3.0,3.0,84,0.00,,,0.00,0,Wunderground v.1.15,2013-02-11 05:19:00,
2013-02-11 00:24:00,33.5,29.2,30.32,SW,219,0.0,4.0,84,0.00,,,0.00,0,Wunderground v.1.15,2013-02-11 05:24:00,
2013-02-11 00:30:00,33.6,29.3,30.31,SW,216,3.0,3.0,84,0.00,,,0.00,0,Wunderground v.1.15,2013-02-11 05:30:00,
2013-02-11 00:36:00,33.8,29.5,30.31,SSW,208,1.0,4.0,84,0.00,,,0.00,0,Wunderground v.1.15,2013-02-11 05:36:00,
2013-02-11 00:42:00,33.9,29.6,30.31,SSW,201,0.0,2.0,84,0.00,,,0.00,0,Wunderground v.1.15,2013-02-11 05:42:00,
2013-02-11 00:47:00,34.0,29.7,30.30,SSW,206,0.0,4.0,84,0.00,,,0.00,0,Wunderground v.1.15,2013-02-11 05:47:00,
2013-02-11 00:53:00,34.1,29.8,30.29,SSW,205,3.0,6.0,84,0.00,,,0.00,0,Wunderground v.1.15,2013-02-11 05:53:00,
2013-02-11 00:59:00,34.4,30.4,30.29,SSW,207,0.0,6.0,85,0.00,,,0.00,0,Wunderground v.1.15,2013-02-11 05:59:00,
2013-02-11 01:05:00,34.6,30.6,30.29,SSW,207,0.0,5.0,85,0.00,,,0.00,0,Wunderground v.1.15,2013-02-11 06:05:00,
2013-02-11 01:10:00,34.8,30.8,30.29,SSW,209,1.0,2.0,85,0.00,,,0.00,0,Wunderground v.1.15,2013-02-11 06:10:00,
2013-02-11 01:15:00,35.1,31.0,30.29,SW,215,0.0,5.0,85,0.00,,,0.00,0,Wunderground v.1.15,2013-02-11 06:15:00,
2013-02-11 01:21:00,35.4,31.3,30.28,SW,221,0.0,7.0,85,0.00,,,0.00,0,Wunderground v.1.15,2013-02-11 06:21:00,
2013-02-11 01:26:00,35.6,31.5,30.27,SSW,209,4.0,7.0,85,0.00,,,0.00,0,Wunderground v.1.15,2013-02-11 06:26:00,
2013-02-11 01:31:00,35.8,31.7,30.27,SSW,208,3.0,6.0,85,0.00,,,0.00,0,Wunderground v.1.15,2013-02-11 06:31:00,
2013-02-11 01:37:00,36.0,31.9,30.27,South,187,4.0,8.0,85,0.00,,,0.00,0,Wunderground v.1.15,2013-02-11 06:37:00,
2013-02-11 01:42:00,36.2,32.4,30.27,South,190,2.0,4.0,86,0.00,,,0.00,0,Wunderground v.1.15,2013-02-11 06:42:00,
2013-02-11 01:47:00,36.3,32.5,30.27,SSW,209,6.0,6.0,86,0.00,,,0.00,0,Wunderground v.1.15,2013-02-11 06:47:00,
2013-02-11 01:53:00,36.5,32.4,30.27,SSW,203,0.0,5.0,85,0.00,,,0.00,0,Wunderground v.1.15,2013-02-11 06:53:00,
2013-02-11 01:59:00,36.6,32.5,30.27,SSW,204,2.0,5.0,85,0.00,,,0.00,0,Wunderground v.1.15,2013-02-11 06:59:00,
2013-02-11 02:04:00,36.6,32.5,30.26,SSW,199,0.0,7.0,85,0.00,,,0.00,0,Wunderground v.1.15,2013-02-11 07:04:00,
2013-02-11 02:09:00,36.7,32.6,30.25,South,178,6.0,8.0,85,0.00,,,0.00,0,Wunderground v.1.15,2013-02-11 07:09:00,
2013-02-11 02:14:00,36.8,32.7,30.25,South,178,5.0,6.0,85,0.00,,,0.00,0,Wunderground v.1.15,2013-02-11 07:14:00,
2013-02-11 02:19:00,36.9,33.1,30.24,SSW,200,3.0,7.0,86,0.00,,,0.00,0,Wunderground v.1.15,2013-02-11 07:19:00,
2013-02-11 02:24:00,37.0,33.2,30.24,South,181,4.0,9.0,86,0.00,,,0.00,0,Wunderground v.1.15,2013-02-11 07:24:00,
2013-02-11 02:29:00,37.1,33.3,30.24,SSW,194,2.0,9.0,86,0.00,,,0.00,0,Wunderground v.1.15,2013-02-11 07:29:00,
2013-02-11 02:34:00,37.3,33.5,30.24,SSW,204,0.0,7.0,86,0.00,,,0.00,0,Wunderground v.1.15,2013-02-11 07:34:00,
2013-02-11 02:39:00,37.4,33.6,30.24,SSW,200,5.0,7.0,86,0.00,,,0.00,0,Wunderground v.1.15,2013-02-11 07:39:00,
2013-02-11 02:44:00,37.6,33.8,30.24,SSW,204,0.0,6.0,86,0.00,,,0.00,0,Wunderground v.1.15,2013-02-11 07:44:00,
2013-02-11 02:49:00,37.7,33.9,30.23,SW,221,6.0,7.0,86,0.00,,,0.00,0,Wunderground v.1.15,2013-02-11 07:49:00,
2013-02-11 02:54:00,37.8,34.3,30.23,SW,229,4.0,5.0,87,0.00,,,0.00,0,Wunderground v.1.15,2013-02-11 07:54:00,
2013-02-11 02:59:00,37.9,34.4,30.23,SW,219,3.0,6.0,87,0.00,,,0.00,0,Wunderground v.1.15,2013-02-11 07:59:00,
2013-02-11 03:04:00,38.0,34.5,30.23,SW,216,0.0,6.0,87,0.00,,,0.00,0,Wunderground v.1.15,2013-02-11 08:04:00,
2013-02-11 03:09:00,38.0,34.5,30.23,SW,217,1.0,6.0,87,0.00,,,0.00,0,Wunderground v.1.15,2013-02-11 08:09:00,
2013-02-11 03:14:00,38.1,34.6,30.22,SSW,212,4.0,4.0,87,0.00,,,0.00,0,Wunderground v.1.15,2013-02-11 08:14:00,
2013-02-11 03:19:00,38.1,34.6,30.22,SSW,212,3.0,4.0,87,0.00,,,0.00,0,Wunderground v.1.15,2013-02-11 08:19:00,
2013-02-11 03:24:00,38.1,34.6,30.22,SSW,211,3.0,5.0,87,0.00,,,0.00,0,Wunderground v.1.15,2013-02-11 08:24:00,
2013-02-11 03:29:00,38.1,34.6,30.21,SSW,205,3.0,6.0,87,0.00,,,0.00,0,Wunderground v.1.15,2013-02-11 08:29:00,
2013-02-11 03:34:00,38.1,34.6,30.21,SSW,203,3.0,5.0,87,0.00,,,0.00,0,Wunderground v.1.15,2013-02-11 08:34:00,
2013-02-11 03:39:00,38.1,34.6,30.20,South,190,5.0,6.0,87,0.00,,,0.00,0,Wunderground v.1.15,2013-02-11 08:39:00,
2013-02-11 03:44:00,38.1,34.9,30.20,South,182,3.0,7.0,88,0.00,,,0.00,0,Wunderground v.1.15,2013-02-11 08:44:00,
2013-02-11 03:49:00,38.2,35.0,30.19,South,186,3.0,7.0,88,0.00,,,0.00,0,Wunderground v.1.15,2013-02-11 08:49:00,
2013-02-11 03:54:00,38.2,35.0,30.18,South,178,0.0,8.0,88,0.00,,,0.00,0,Wunderground v.1.15,2013-02-11 08:54:00,
2013-02-11 03:59:00,38.4,35.2,30.18,South,186,4.0,8.0,88,0.00,,,0.00,0,Wunderground v.1.15,2013-02-11 08:59:00,
2013-02-11 04:04:00,38.6,35.4,30.18,South,180,2.0,6.0,88,0.00,,,0.00,0,Wunderground v.1.15,2013-02-11 09:04:00,
2013-02-11 04:09:00,38.7,35.7,30.18,South,184,3.0,8.0,89,0.00,,,0.00,0,Wunderground v.1.15,2013-02-11 09:09:00,
2013-02-11 04:14:00,38.9,35.9,30.18,SSW,195,0.0,7.0,89,0.00,,,0.00,0,Wunderground v.1.15,2013-02-11 09:14:00,
2013-02-11 04:19:00,39.0,36.0,30.18,South,191,7.0,7.0,89,0.00,,,0.00,0,Wunderground v.1.15,2013-02-11 09:19:00,
2013-02-11 04:24:00,39.2,36.2,30.18,South,186,0.0,7.0,89,0.00,,,0.00,0,Wunderground v.1.15,2013-02-11 09:24:00,
2013-02-11 04:29:00,39.2,36.2,30.17,South,188,5.0,8.0,89,0.00,,,0.00,0,Wunderground v.1.15,2013-02-11 09:29:00,
2013-02-11 04:34:00,39.3,36.3,30.17,South,184,0.0,7.0,89,0.00,,,0.00,0,Wunderground v.1.15,2013-02-11 09:34:00,
2013-02-11 04:39:00,39.4,36.4,30.17,South,186,3.0,7.0,89,0.00,,,0.00,0,Wunderground v.1.15,2013-02-11 09:39:00,
2013-02-11 04:44:00,39.5,36.8,30.17,SSW,198,5.0,7.0,90,0.00,,,0.00,0,Wunderground v.1.15,2013-02-11 09:44:00,
2013-02-11 04:49:00,39.6,36.9,30.17,South,185,5.0,8.0,90,0.00,,,0.00,0,Wunderground v.1.15,2013-02-11 09:49:00,
2013-02-11 04:54:00,39.7,37.0,30.17,SW,215,5.0,7.0,90,0.00,,,0.00,0,Wunderground v.1.15,2013-02-11 09:54:00,
2013-02-11 04:59:00,39.9,37.2,30.17,SSW,209,2.0,8.0,90,0.00,,,0.00,0,Wunderground v.1.15,2013-02-11 09:59:00,
2013-02-11 05:04:00,39.9,37.2,30.17,SW,215,2.0,5.0,90,0.00,,,0.00,0,Wunderground v.1.15,2013-02-11 10:04:00,
2013-02-11 05:09:00,40.0,37.3,30.16,SW,216,1.0,6.0,90,0.00,,,0.00,0,Wunderground v.1.15,2013-02-11 10:09:00,
2013-02-11 05:14:00,40.0,37.3,30.16,South,182,5.0,7.0,90,0.00,,,0.00,0,Wunderground v.1.15,2013-02-11 10:14:00,
2013-02-11 05:19:00,40.0,37.3,30.16,SSW,209,0.0,8.0,90,0.00,,,0.01,0,Wunderground v.1.15,2013-02-11 10:19:00,
2013-02-11 05:24:00,40.0,37.3,30.15,SW,219,4.0,7.0,90,0.00,,,0.01,0,Wunderground v.1.15,2013-02-11 10:24:00,
2013-02-11 05:29:00,40.0,37.3,30.14,SW,215,0.0,7.0,90,0.00,,,0.01,0,Wunderground v.1.15,2013-02-11 10:29:00,
2013-02-11 05:35:00,39.8,36.8,30.14,SW,217,3.0,6.0,89,0.00,,,0.01,0,Wunderground v.1.15,2013-02-11 10:35:00,
2013-02-11 05:40:00,39.7,37.0,30.13,SW,214,0.0,3.0,90,0.00,,,0.01,0,Wunderground v.1.15,2013-02-11 10:40:00,
2013-02-11 05:45:00,39.6,36.9,30.14,SW,217,3.0,5.0,90,0.00,,,0.01,0,Wunderground v.1.15,2013-02-11 10:45:00,
2013-02-11 05:50:00,39.5,36.8,30.13,SSW,210,2.0,4.0,90,0.00,,,0.01,0,Wunderground v.1.15,2013-02-11 10:50:00,
2013-02-11 05:55:00,39.4,36.7,30.13,SW,221,5.0,7.0,90,0.00,,,0.01,0,Wunderground v.1.15,2013-02-11 10:55:00,
2013-02-11 06:00:00,39.5,36.8,30.13,SSW,211,3.0,6.0,90,0.00,,,0.02,0,Wunderground v.1.15,2013-02-11 11:00:00,
2013-02-11 06:05:00,39.5,36.8,30.12,SSW,213,4.0,6.0,90,0.00,,,0.02,0,Wunderground v.1.15,2013-02-11 11:05:00,
2013-02-11 06:10:00,39.5,36.8,30.12,SSW,211,3.0,5.0,90,0.00,,,0.02,0,Wunderground v.1.15,2013-02-11 11:10:00,
2013-02-11 06:15:00,39.5,36.8,30.11,SSW,211,1.0,5.0,90,0.00,,,0.02,0,Wunderground v.1.15,2013-02-11 11:15:00,
2013-02-11 06:20:00,39.5,36.8,30.10,SSW,211,3.0,3.0,90,0.00,,,0.02,0,Wunderground v.1.15,2013-02-11 11:20:00,
2013-02-11 06:25:00,39.6,36.9,30.10,SSW,211,2.0,4.0,90,0.00,,,0.03,0,Wunderground v.1.15,2013-02-11 11:25:00,
2013-02-11 06:30:00,39.6,36.9,30.09,SSW,195,0.0,2.0,90,0.00,,,0.03,0,Wunderground v.1.15,2013-02-11 11:30:00,
2013-02-11 06:35:00,39.7,37.0,30.09,South,182,2.0,7.0,90,0.00,,,0.03,0,Wunderground v.1.15,2013-02-11 11:35:00,
2013-02-11 06:40:00,40.0,37.6,30.09,South,177,0.0,3.0,91,0.00,,,0.03,0,Wunderground v.1.15,2013-02-11 11:40:00,
2013-02-11 06:45:00,40.2,37.8,30.09,South,175,3.0,10.0,91,0.00,,,0.03,0,Wunderground v.1.15,2013-02-11 11:45:00,
2013-02-11 06:50:00,40.5,38.1,30.09,South,188,7.0,7.0,91,0.00,,,0.04,0,Wunderground v.1.15,2013-02-11 11:50:00,
2013-02-11 06:55:00,40.8,38.4,30.08,SSW,194,4.0,9.0,91,0.00,,,0.04,0,Wunderground v.1.15,2013-02-11 11:55:00,
2013-02-11 07:00:00,41.1,39.0,30.07,South,180,0.0,5.0,92,0.08,,,0.05,0,Wunderground v.1.15,2013-02-11 12:00:00,
2013-02-11 07:05:00,41.3,39.2,30.07,South,181,2.0,9.0,92,0.13,,,0.06,0,Wunderground v.1.15,2013-02-11 12:05:00,
2013-02-11 07:10:00,41.5,39.3,30.06,South,179,3.0,5.0,92,0.07,,,0.06,0,Wunderground v.1.15,2013-02-11 12:10:00,
2013-02-11 07:15:00,41.6,39.4,30.06,South,186,2.0,13.0,92,0.07,,,0.07,0,Wunderground v.1.15,2013-02-11 12:15:00,
2013-02-11 07:20:00,41.8,39.6,30.06,South,191,5.0,5.0,92,0.06,,,0.07,0,Wunderground v.1.15,2013-02-11 12:20:00,
2013-02-11 07:25:00,41.9,39.7,30.05,South,180,6.0,11.0,92,0.05,,,0.08,0,Wunderground v.1.15,2013-02-11 12:25:00,
2013-02-11 07:30:00,42.1,39.9,30.05,South,183,5.0,5.0,92,0.05,,,0.08,5,Wunderground v.1.15,2013-02-11 12:30:00,
2013-02-11 07:35:00,42.4,40.2,30.05,South,188,7.0,18.0,92,0.06,,,0.09,5,Wunderground v.1.15,2013-02-11 12:35:00,
2013-02-11 07:40:00,42.7,40.5,30.05,South,184,9.0,9.0,92,0.06,,,0.09,7,Wunderground v.1.15,2013-02-11 12:40:00,
2013-02-11 07:45:00,42.9,41.0,30.04,SSW,209,13.0,14.0,93,0.08,,,0.10,7,Wunderground v.1.15,2013-02-11 12:45:00,
2013-02-11 07:50:00,43.1,41.2,30.03,South,172,15.0,15.0,93,0.09,,,0.11,7,Wunderground v.1.15,2013-02-11 12:50:00,
2013-02-11 07:55:00,43.2,41.3,30.03,SE,139,10.0,15.0,93,0.10,,,0.12,7,Wunderground v.1.15,2013-02-11 12:55:00,
2013-02-11 08:00:00,43.3,41.4,30.03,South,186,6.0,8.0,93,0.10,,,0.13,9,Wunderground v.1.15,2013-02-11 13:00:00,
2013-02-11 08:05:00,43.5,41.6,30.02,South,184,12.0,14.0,93,0.10,,,0.13,5,Wunderground v.1.15,2013-02-11 13:05:00,
2013-02-11 08:10:00,43.7,41.8,30.02,SW,223,7.0,10.0,93,0.08,,,0.14,7,Wunderground v.1.15,2013-02-11 13:10:00,
2013-02-11 08:15:00,43.8,41.9,30.02,SW,229,2.0,18.0,93,0.07,,,0.14,9,Wunderground v.1.15,2013-02-11 13:15:00,
2013-02-11 08:20:00,44.0,42.1,30.01,South,182,4.0,9.0,93,0.04,,,0.14,9,Wunderground v.1.15,2013-02-11 13:20:00,
2013-02-11 08:25:00,44.0,42.1,30.00,SW,219,0.0,16.0,93,0.04,,,0.15,9,Wunderground v.1.15,2013-02-11 13:25:00,
2013-02-11 08:30:00,44.1,42.2,30.00,SSW,198,7.0,10.0,93,0.04,,,0.15,9,Wunderground v.1.15,2013-02-11 13:30:00,
2013-02-11 08:35:00,44.1,42.2,29.99,SW,223,22.0,22.0,93,0.07,,,0.16,12,Wunderground v.1.15,2013-02-11 13:35:00,
2013-02-11 08:40:00,44.1,42.2,29.99,SSW,209,8.0,8.0,93,0.06,,,0.16,11,Wunderground v.1.15,2013-02-11 13:40:00,
2013-02-11 08:45:00,44.0,42.1,29.99,SW,217,7.0,13.0,93,0.04,,,0.16,9,Wunderground v.1.15,2013-02-11 13:45:00,
2013-02-11 08:50:00,43.9,42.0,29.99,SSW,198,5.0,7.0,93,0.00,,,0.17,11,Wunderground v.1.15,2013-02-11 13:50:00,
2013-02-11 08:55:00,43.9,42.3,29.98,SSW,198,9.0,19.0,94,0.00,,,0.17,11,Wunderground v.1.15,2013-02-11 13:55:00,
2013-02-11 09:00:00,44.2,42.6,29.98,SSW,209,7.0,10.0,94,0.06,,,0.18,14,Wunderground v.1.15,2013-02-11 14:00:00,
2013-02-11 09:06:00,44.4,42.8,29.97,SW,232,2.0,17.0,94,0.11,,,0.19,12,Wunderground v.1.15,2013-02-11 14:06:00,
2013-02-11 09:11:00,44.5,42.9,29.97,WSW,255,6.0,14.0,94,0.09,,,0.19,9,Wunderground v.1.15,2013-02-11 14:11:00,
2013-02-11 09:16:00,44.3,42.7,29.97,WSW,246,8.0,16.0,94,0.08,,,0.20,19,Wunderground v.1.15,2013-02-11 14:16:00,
2013-02-11 09:21:00,44.2,42.6,29.97,SW,232,7.0,13.0,94,0.07,,,0.20,21,Wunderground v.1.15,2013-02-11 14:21:00,
2013-02-11 09:26:00,44.3,42.7,29.96,South,186,7.0,15.0,94,0.04,,,0.20,16,Wunderground v.1.15,2013-02-11 14:26:00,
2013-02-11 09:31:00,44.6,43.0,29.97,SSW,205,9.0,18.0,94,0.00,,,0.21,19,Wunderground v.1.15,2013-02-11 14:31:00,
2013-02-11 09:36:00,45.1,43.8,29.96,WSW,244,7.0,19.0,95,0.00,,,0.21,23,Wunderground v.1.15,2013-02-11 14:36:00,
2013-02-11 09:41:00,45.4,44.1,29.96,WSW,241,12.0,12.0,95,0.08,,,0.22,32,Wunderground v.1.15,2013-02-11 14:41:00,
2013-02-11 09:46:00,45.6,44.3,29.96,SW,229,2.0,22.0,95,0.09,,,0.23,30,Wunderground v.1.15,2013-02-11 14:46:00,
2013-02-11 09:51:00,45.7,44.1,29.95,SSW,198,16.0,17.0,94,0.09,,,0.24,37,Wunderground v.1.15,2013-02-11 14:51:00,
2013-02-11 09:56:00,45.7,44.1,29.95,WSW,244,11.0,19.0,94,0.09,,,0.24,28,Wunderground v.1.15,2013-02-11 14:56:00,
2013-02-11 10:02:00,45.9,44.3,29.96,SW,230,11.0,11.0,94,0.07,,,0.25,26,Wunderground v.1.15,2013-02-11 15:02:00,
2013-02-11 10:07:00,46.0,44.4,29.96,South,181,9.0,16.0,94,0.08,,,0.26,23,Wunderground v.1.15,2013-02-11 15:07:00,
2013-02-11 10:12:00,46.3,44.9,29.96,SW,232,10.0,15.0,95,0.08,,,0.26,32,Wunderground v.1.15,2013-02-11 15:12:00,
2013-02-11 10:17:00,46.5,45.1,29.95,SW,227,10.0,15.0,95,0.32,,,0.28,33,Wunderground v.1.15,2013-02-11 15:17:00,
2013-02-11 10:22:00,46.6,45.2,29.95,SW,219,6.0,11.0,95,0.10,,,0.29,25,Wunderground v.1.15,2013-02-11 15:22:00,
2013-02-11 10:27:00,46.6,45.2,29.95,WSW,252,6.0,14.0,95,0.13,,,0.30,26,Wunderground v.1.15,2013-02-11 15:27:00,
2013-02-11 10:32:00,46.6,45.2,29.94,SSW,205,6.0,13.0,95,0.10,,,0.30,35,Wunderground v.1.15,2013-02-11 15:32:00,
2013-02-11 10:37:00,46.7,45.3,29.95,SW,216,4.0,13.0,95,0.05,,,0.30,37,Wunderground v.1.15,2013-02-11 15:37:00,
2013-02-11 10:42:00,46.8,45.4,29.94,SW,219,2.0,7.0,95,0.04,,,0.30,51,Wunderground v.1.15,2013-02-11 15:42:00,
2013-02-11 10:47:00,46.8,45.4,29.94,SW,232,4.0,8.0,95,0.00,,,0.30,47,Wunderground v.1.15,2013-02-11 15:47:00,
2013-02-11 10:52:00,47.0,45.6,29.94,SW,225,2.0,8.0,95,0.00,,,0.30,62,Wunderground v.1.15,2013-02-11 15:52:00,
2013-02-11 10:57:00,47.4,46.0,29.94,WSW,241,4.0,8.0,95,0.00,,,0.30,58,Wunderground v.1.15,2013-02-11 15:57:00,
2013-02-11 11:02:00,47.7,46.3,29.93,SW,221,2.0,9.0,95,0.00,,,0.31,51,Wunderground v.1.15,2013-02-11 16:02:00,
2013-02-11 11:07:00,47.9,46.5,29.93,SW,221,2.0,11.0,95,0.00,,,0.31,56,Wunderground v.1.15,2013-02-11 16:07:00,
2013-02-11 11:12:00,48.1,46.7,29.92,WSW,240,6.0,11.0,95,0.00,,,0.31,54,Wunderground v.1.15,2013-02-11 16:12:00,
2013-02-11 11:17:00,48.3,46.9,29.92,SW,236,0.0,11.0,95,0.00,,,0.31,47,Wunderground v.1.15,2013-02-11 16:17:00,
2013-02-11 11:22:00,48.4,47.0,29.91,WSW,238,1.0,6.0,95,0.00,,,0.31,58,Wunderground v.1.15,2013-02-11 16:22:00,
2013-02-11 11:27:00,48.5,47.1,29.91,SSW,213,3.0,8.0,95,0.00,,,0.31,81,Wunderground v.1.15,2013-02-11 16:27:00,
2013-02-11 11:32:00,48.6,47.2,29.91,SW,233,2.0,10.0,95,0.00,,,0.31,60,Wunderground v.1.15,2013-02-11 16:32:00,
2013-02-11 11:37:00,48.7,47.3,29.90,SSW,202,2.0,10.0,95,0.00,,,0.31,37,Wunderground v.1.15,2013-02-11 16:37:00,
2013-02-11 11:42:00,48.6,47.2,29.90,SSW,207,1.0,4.0,95,0.00,,,0.31,35,Wunderground v.1.15,2013-02-11 16:42:00,
2013-02-11 11:47:00,48.5,47.1,29.90,SSW,213,2.0,6.0,95,0.00,,,0.31,40,Wunderground v.1.15,2013-02-11 16:47:00,
2013-02-11 11:52:00,48.4,47.0,29.89,SSW,211,2.0,4.0,95,0.00,,,0.31,40,Wunderground v.1.15,2013-02-11 16:52:00,
2013-02-11 11:57:00,48.4,47.0,29.88,SSW,208,0.0,4.0,95,0.00,,,0.31,69,Wunderground v.1.15,2013-02-11 16:57:00,
2013-02-11 18:16:00,47.8,46.7,29.67,SW,226,0.0,2.0,96,0.00,,,0.32,0,Wunderground v.1.15,2013-02-11 23:16:00,
2013-02-11 18:28:00,48.0,46.9,29.66,SSW,209,5.0,5.0,96,0.00,,,0.32,0,Wunderground v.1.15,2013-02-11 23:28:00,
2013-02-11 18:33:00,47.9,46.8,29.66,SSW,213,4.0,5.0,96,0.00,,,0.32,0,Wunderground v.1.15,2013-02-11 23:33:00,
2013-02-11 18:39:00,47.8,46.7,29.66,SSW,198,4.0,5.0,96,0.00,,,0.32,0,Wunderground v.1.15,2013-02-11 23:39:00,
2013-02-11 18:44:00,47.8,46.7,29.66,SW,218,2.0,5.0,96,0.00,,,0.32,0,Wunderground v.1.15,2013-02-11 23:44:00,
2013-02-11 18:49:00,47.7,46.6,29.66,SSW,206,2.0,5.0,96,0.00,,,0.32,0,Wunderground v.1.15,2013-02-11 23:49:00,
2013-02-11 18:53:00,47.6,46.5,29.65,SSW,209,2.0,5.0,96,0.00,,,0.32,0,Wunderground v.1.15,2013-02-11 23:53:00,
2013-02-11 18:59:00,47.6,46.5,29.66,SSW,209,2.0,4.0,96,0.00,,,0.32,0,Wunderground v.1.15,2013-02-11 23:59:00,
2013-02-11 19:04:00,47.5,46.4,29.65,SW,223,0.0,6.0,96,0.00,,,0.32,0,Wunderground v.1.15,2013-02-12 00:04:00,
2013-02-11 19:09:00,47.5,46.4,29.65,SW,222,3.0,6.0,96,0.00,,,0.32,0,Wunderground v.1.15,2013-02-12 00:09:00,
2013-02-11 19:14:00,47.4,46.3,29.65,SSW,198,3.0,5.0,96,0.00,,,0.32,0,Wunderground v.1.15,2013-02-12 00:14:00,
2013-02-11 19:19:00,47.3,46.2,29.65,SSW,201,0.0,5.0,96,0.00,,,0.32,0,Wunderground v.1.15,2013-02-12 00:19:00,
2013-02-11 19:24:00,47.3,46.2,29.65,SSW,205,0.0,5.0,96,0.00,,,0.32,0,Wunderground v.1.15,2013-02-12 00:24:00,
2013-02-11 19:29:00,47.2,46.1,29.65,SSW,205,2.0,5.0,96,0.00,,,0.32,0,Wunderground v.1.15,2013-02-12 00:29:00,
2013-02-11 19:34:00,47.2,46.1,29.65,SSW,197,2.0,5.0,96,0.00,,,0.32,0,Wunderground v.1.15,2013-02-12 00:34:00,
2013-02-11 19:39:00,47.1,46.0,29.65,SSW,197,2.0,5.0,96,0.00,,,0.32,0,Wunderground v.1.15,2013-02-12 00:39:00,
2013-02-11 19:44:00,47.0,45.9,29.64,SSW,197,0.0,4.0,96,0.00,,,0.32,0,Wunderground v.1.15,2013-02-12 00:44:00,
2013-02-11 19:49:00,46.9,45.8,29.63,SSW,196,3.0,5.0,96,0.00,,,0.32,0,Wunderground v.1.15,2013-02-12 00:49:00,
2013-02-11 19:54:00,46.9,45.8,29.64,SSW,196,2.0,4.0,96,0.00,,,0.32,0,Wunderground v.1.15,2013-02-12 00:54:00,
2013-02-11 19:59:00,46.9,45.8,29.64,SSW,206,0.0,5.0,96,0.00,,,0.32,0,Wunderground v.1.15,2013-02-12 00:59:00,
2013-02-11 20:04:00,46.9,45.8,29.64,SSW,205,2.0,4.0,96,0.00,,,0.32,0,Wunderground v.1.15,2013-02-12 01:04:00,
2013-02-11 20:09:00,47.0,45.9,29.64,SSW,207,2.0,4.0,96,0.00,,,0.32,0,Wunderground v.1.15,2013-02-12 01:09:00,
2013-02-11 20:14:00,47.0,45.9,29.63,SSW,207,2.0,3.0,96,0.00,,,0.32,0,Wunderground v.1.15,2013-02-12 01:14:00,
2013-02-11 20:19:00,47.0,45.9,29.63,SSW,207,0.0,4.0,96,0.00,,,0.32,0,Wunderground v.1.15,2013-02-12 01:19:00,
2013-02-11 20:24:00,47.0,45.9,29.63,SSW,207,2.0,4.0,96,0.00,,,0.32,0,Wunderground v.1.15,2013-02-12 01:24:00,
2013-02-11 20:29:00,47.0,45.9,29.63,SSW,210,1.0,4.0,96,0.00,,,0.32,0,Wunderground v.1.15,2013-02-12 01:29:00,
2013-02-11 20:34:00,47.1,46.0,29.63,SSW,213,2.0,4.0,96,0.00,,,0.32,0,Wunderground v.1.15,2013-02-12 01:34:00,
2013-02-11 20:39:00,47.0,45.9,29.63,SSW,212,2.0,4.0,96,0.00,,,0.32,0,Wunderground v.1.15,2013-02-12 01:39:00,
2013-02-11 20:44:00,47.0,45.9,29.63,SSW,212,2.0,4.0,96,0.00,,,0.32,0,Wunderground v.1.15,2013-02-12 01:44:00,
2013-02-11 20:49:00,47.0,45.9,29.63,SSW,207,4.0,6.0,96,0.00,,,0.32,0,Wunderground v.1.15,2013-02-12 01:49:00,
2013-02-11 20:54:00,47.0,45.9,29.63,SSW,207,1.0,3.0,96,0.00,,,0.32,0,Wunderground v.1.15,2013-02-12 01:54:00,
2013-02-11 20:59:00,47.0,45.9,29.63,SSW,207,1.0,3.0,96,0.00,,,0.32,0,Wunderground v.1.15,2013-02-12 01:59:00,
2013-02-11 21:04:00,47.0,45.9,29.63,SSW,207,0.0,1.0,96,0.00,,,0.32,0,Wunderground v.1.15,2013-02-12 02:04:00,
2013-02-11 21:09:00,47.1,46.0,29.63,SSW,207,1.0,3.0,96,0.00,,,0.32,0,Wunderground v.1.15,2013-02-12 02:09:00,
2013-02-11 21:14:00,47.0,45.9,29.64,West,273,3.0,7.0,96,0.00,,,0.32,0,Wunderground v.1.15,2013-02-12 02:14:00,
2013-02-11 21:19:00,48.0,47.2,29.63,West,262,2.0,12.0,97,0.00,,,0.32,0,Wunderground v.1.15,2013-02-12 02:19:00,
2013-02-11 21:24:00,49.7,48.9,29.63,West,273,3.0,12.0,97,0.00,,,0.32,0,Wunderground v.1.15,2013-02-12 02:24:00,
2013-02-11 21:29:00,50.8,50.0,29.63,West,279,1.0,12.0,97,0.00,,,0.32,0,Wunderground v.1.15,2013-02-12 02:29:00,
2013-02-11 21:34:00,51.4,50.6,29.63,West,279,3.0,9.0,97,0.00,,,0.32,0,Wunderground v.1.15,2013-02-12 02:34:00,
2013-02-11 21:39:00,51.8,51.0,29.64,WNW,300,4.0,9.0,97,0.00,,,0.32,0,Wunderground v.1.15,2013-02-12 02:39:00,
2013-02-11 21:44:00,52.1,51.3,29.64,WNW,295,3.0,12.0,97,0.00,,,0.32,0,Wunderground v.1.15,2013-02-12 02:44:00,
2013-02-11 21:49:00,52.2,51.4,29.64,WNW,289,2.0,12.0,97,0.00,,,0.32,0,Wunderground v.1.15,2013-02-12 02:49:00,
2013-02-11 21:54:00,52.3,51.2,29.64,WNW,289,1.0,7.0,96,0.00,,,0.32,0,Wunderground v.1.15,2013-02-12 02:54:00,
2013-02-11 21:59:00,52.3,51.2,29.64,West,277,2.0,10.0,96,0.00,,,0.32,0,Wunderground v.1.15,2013-02-12 02:59:00,
2013-02-11 22:04:00,52.4,51.3,29.64,WNW,296,4.0,10.0,96,0.00,,,0.32,0,Wunderground v.1.15,2013-02-12 03:04:00,
2013-02-11 22:09:00,52.3,51.2,29.65,NW,311,0.0,10.0,96,0.00,,,0.32,0,Wunderground v.1.15,2013-02-12 03:09:00,
2013-02-11 22:14:00,52.3,51.2,29.65,West,260,9.0,16.0,96,0.00,,,0.32,0,Wunderground v.1.15,2013-02-12 03:14:00,
2013-02-11 22:19:00,52.4,51.3,29.64,WNW,303,2.0,16.0,96,0.00,,,0.32,0,Wunderground v.1.15,2013-02-12 03:19:00,
2013-02-11 22:24:00,52.4,51.3,29.65,West,281,4.0,15.0,96,0.00,,,0.32,0,Wunderground v.1.15,2013-02-12 03:24:00,
2013-02-11 22:29:00,52.3,51.2,29.67,NW,319,6.0,6.0,96,0.00,,,0.32,0,Wunderground v.1.15,2013-02-12 03:29:00,
2013-02-11 22:34:00,52.2,51.1,29.67,WNW,302,8.0,15.0,96,0.00,,,0.32,0,Wunderground v.1.15,2013-02-12 03:34:00,
2013-02-11 22:39:00,51.9,50.8,29.67,NW,326,6.0,15.0,96,0.00,,,0.32,0,Wunderground v.1.15,2013-02-12 03:39:00,
2013-02-11 22:45:00,51.6,50.5,29.68,North,355,5.0,16.0,96,0.00,,,0.32,0,Wunderground v.1.15,2013-02-12 03:45:00,
2013-02-11 22:50:00,51.3,50.2,29.67,NNW,327,7.0,7.0,96,0.00,,,0.32,0,Wunderground v.1.15,2013-02-12 03:50:00,
2013-02-11 22:55:00,51.0,49.9,29.67,NW,317,3.0,9.0,96,0.00,,,0.32,0,Wunderground v.1.15,2013-02-12 03:55:00,
2013-02-11 23:00:00,50.7,49.6,29.68,WNW,303,10.0,10.0,96,0.00,,,0.32,0,Wunderground v.1.15,2013-02-12 04:00:00,
2013-02-11 23:05:00,50.4,49.3,29.68,NW,311,5.0,14.0,96,0.00,,,0.32,0,Wunderground v.1.15,2013-02-12 04:05:00,
2013-02-11 23:10:00,50.1,49.0,29.68,NW,306,4.0,6.0,96,0.00,,,0.32,0,Wunderground v.1.15,2013-02-12 04:10:00,
2013-02-11 23:15:00,49.7,48.6,29.69,NW,313,9.0,17.0,96,0.00,,,0.32,0,Wunderground v.1.15,2013-02-12 04:15:00,
2013-02-11 23:20:00,49.4,48.0,29.69,NW,319,7.0,7.0,95,0.00,,,0.32,0,Wunderground v.1.15,2013-02-12 04:20:00,
2013-02-11 23:25:00,49.1,48.0,29.69,NW,309,5.0,13.0,96,0.00,,,0.32,0,Wunderground v.1.15,2013-02-12 04:25:00,
2013-02-11 23:30:00,48.9,47.5,29.69,NNW,342,0.0,4.0,95,0.00,,,0.32,0,Wunderground v.1.15,2013-02-12 04:30:00,
2013-02-11 23:35:00,48.5,47.1,29.70,NW,306,4.0,9.0,95,0.00,,,0.32,0,Wunderground v.1.15,2013-02-12 04:35:00,
2013-02-11 23:40:00,48.1,46.7,29.71,NW,325,5.0,5.0,95,0.00,,,0.32,0,Wunderground v.1.15,2013-02-12 04:40:00,
2013-02-11 23:45:00,47.6,46.2,29.71,NNW,334,2.0,11.0,95,0.00,,,0.32,0,Wunderground v.1.15,2013-02-12 04:45:00,
2013-02-11 23:50:00,47.2,45.8,29.72,NNW,339,1.0,7.0,95,0.00,,,0.32,0,Wunderground v.1.15,2013-02-12 04:50:00,
2013-02-11 23:55:00,46.9,45.5,29.72,North,355,7.0,13.0,95,0.00,,,0.32,0,Wunderground v.1.15,2013-02-12 04:55:00,